createdAt,value
2019-04-29T00:02:49.599Z,9.90
2019-04-29T00:05:19.180Z,9.80
2019-04-29T00:07:48.430Z,9.90
2019-04-29T00:10:20.430Z,9.80
2019-04-29T00:12:49.856Z,9.80
2019-04-29T00:15:38.261Z,9.80
2019-04-29T00:18:13.169Z,9.80
2019-04-29T00:20:45.920Z,9.80
2019-04-29T00:23:15.276Z,9.80
2019-04-29T00:25:45.056Z,9.80
2019-04-29T00:28:14.468Z,9.80
2019-04-29T00:30:44.138Z,9.80
2019-04-29T00:33:13.536Z,9.80
2019-04-29T00:35:42.843Z,9.70
2019-04-29T00:38:37.608Z,9.70
2019-04-29T00:41:25.864Z,9.70
2019-04-29T00:43:57.748Z,9.70
2019-04-29T00:46:27.048Z,9.60
2019-04-29T00:48:56.360Z,9.60
2019-04-29T00:51:25.567Z,9.60
2019-04-29T00:53:59.475Z,9.60
2019-04-29T00:56:28.609Z,9.60
2019-04-29T00:58:57.903Z,9.50
2019-04-29T01:01:27.315Z,9.50
2019-04-29T01:03:56.654Z,9.50
2019-04-29T01:06:26.313Z,9.50
2019-04-29T01:08:55.555Z,9.50
2019-04-29T01:11:24.893Z,9.50
2019-04-29T01:13:54.358Z,9.50
2019-04-29T01:16:23.924Z,9.50
2019-04-29T01:18:52.990Z,9.40
2019-04-29T01:21:22.247Z,9.40
2019-04-29T01:23:51.545Z,9.40
2019-04-29T01:26:45.458Z,9.40
2019-04-29T01:29:17.743Z,9.30
2019-04-29T01:31:47.102Z,9.30
2019-04-29T01:34:21.237Z,9.30
2019-04-29T01:36:50.775Z,9.20
2019-04-29T01:39:20.222Z,9.20
2019-04-29T01:41:54.934Z,9.20
2019-04-29T01:44:24.576Z,9.20
2019-04-29T01:46:53.955Z,9.20
2019-04-29T01:49:23.142Z,9.20
2019-04-29T01:51:52.565Z,9.20
2019-04-29T01:54:21.888Z,9.20
2019-04-29T01:56:51.502Z,9.20
2019-04-29T01:59:20.845Z,9.20
2019-04-29T02:01:50.147Z,9.20
2019-04-29T02:04:19.433Z,9.20
2019-04-29T02:06:48.750Z,9.20
2019-04-29T02:09:26.226Z,9.10
2019-04-29T02:11:55.508Z,9.10
2019-04-29T02:14:24.795Z,9.10
2019-04-29T02:16:54.138Z,9.10
2019-04-29T02:19:23.397Z,9.10
2019-04-29T02:22:11.437Z,9.10
2019-04-29T02:24:43.163Z,9.00
2019-04-29T02:27:12.490Z,9.00
2019-04-29T02:29:41.625Z,9.00
2019-04-29T02:32:10.885Z,9.00
2019-04-29T02:34:40.245Z,8.90
2019-04-29T02:37:11.576Z,8.90
2019-04-29T02:39:45.989Z,8.90
2019-04-29T02:42:33.188Z,8.90
2019-04-29T02:45:07.249Z,8.90
2019-04-29T02:47:36.398Z,8.90
2019-04-29T02:50:06.314Z,8.90
2019-04-29T02:52:35.748Z,8.90
2019-04-29T02:55:06.923Z,8.90
2019-04-29T02:57:58.301Z,8.90
2019-04-29T03:00:38.633Z,8.90
2019-04-29T03:03:14.799Z,8.90
2019-04-29T03:05:47.629Z,9.00
2019-04-29T03:08:16.837Z,8.90
2019-04-29T03:10:46.117Z,8.90
2019-04-29T03:13:15.381Z,8.90
2019-04-29T03:15:45.060Z,9.00
2019-04-29T03:18:14.432Z,9.00
2019-04-29T03:20:55.179Z,9.00
2019-04-29T03:23:24.699Z,9.10
2019-04-29T03:25:54.008Z,9.10
2019-04-29T03:28:23.262Z,9.10
2019-04-29T03:30:52.611Z,9.10
2019-04-29T03:33:21.897Z,9.10
2019-04-29T03:35:51.141Z,9.10
2019-04-29T03:38:20.450Z,9.10
2019-04-29T03:40:49.750Z,9.10
2019-04-29T03:43:19.010Z,9.10
2019-04-29T03:45:48.356Z,9.10
2019-04-29T03:48:17.710Z,9.10
2019-04-29T03:50:47.088Z,9.20
2019-04-29T03:53:16.463Z,9.20
2019-04-29T03:55:45.631Z,9.20
2019-04-29T03:58:14.806Z,9.20
2019-04-29T04:00:45.544Z,9.20
2019-04-29T04:03:31.971Z,9.20
2019-04-29T04:06:20.243Z,9.20
2019-04-29T04:09:05.585Z,9.30
2019-04-29T04:11:24.001Z,9.20
2019-04-29T04:13:53.089Z,9.30
2019-04-29T04:16:30.031Z,9.30
2019-04-29T04:19:07.190Z,9.30
2019-04-29T04:21:36.573Z,9.30
2019-04-29T04:24:05.793Z,9.30
2019-04-29T04:26:34.953Z,9.40
2019-04-29T04:29:04.200Z,9.40
2019-04-29T04:31:34.205Z,9.30
2019-04-29T04:34:03.351Z,9.40
2019-04-29T04:36:32.653Z,9.40
2019-04-29T04:39:01.800Z,9.40
2019-04-29T04:41:31.021Z,9.40
2019-04-29T04:44:00.179Z,9.40
2019-04-29T04:46:30.062Z,9.40
2019-04-29T04:48:59.252Z,9.40
2019-04-29T04:51:28.339Z,9.40
2019-04-29T04:53:57.592Z,9.40
2019-04-29T04:56:26.700Z,9.40
2019-04-29T04:58:56.026Z,9.40
2019-04-29T05:01:25.233Z,9.40
2019-04-29T05:03:54.628Z,9.40
2019-04-29T05:06:23.947Z,9.50
2019-04-29T05:08:53.203Z,9.40
2019-04-29T05:11:22.607Z,9.50
2019-04-29T05:13:51.807Z,9.50
2019-04-29T05:16:21.000Z,9.50
2019-04-29T05:18:50.199Z,9.60
2019-04-29T05:21:19.521Z,9.60
2019-04-29T05:23:48.996Z,9.60
2019-04-29T05:26:18.469Z,9.60
2019-04-29T05:28:47.721Z,9.60
2019-04-29T05:31:17.023Z,9.60
2019-04-29T05:33:46.304Z,9.60
2019-04-29T05:36:38.283Z,9.70
2019-04-29T05:39:20.672Z,9.70
2019-04-29T05:41:50.312Z,9.70
2019-04-29T05:44:48.168Z,9.70
2019-04-29T05:47:41.523Z,9.70
2019-04-29T05:50:33.333Z,9.80
2019-04-29T05:53:11.401Z,9.80
2019-04-29T05:55:41.002Z,9.80
2019-04-29T05:58:13.072Z,9.80
2019-04-29T06:00:46.171Z,9.90
2019-04-29T06:03:15.619Z,9.90
2019-04-29T06:05:45.139Z,9.90
2019-04-29T06:08:14.588Z,10.00
2019-04-29T06:10:43.816Z,10.00
2019-04-29T06:13:18.953Z,10.10
2019-04-29T06:15:54.331Z,10.10
2019-04-29T06:18:29.251Z,10.20
2019-04-29T06:21:09.473Z,10.20
2019-04-29T06:23:40.224Z,10.30
2019-04-29T06:26:14.649Z,10.30
2019-04-29T06:28:50.213Z,10.30
2019-04-29T06:31:25.083Z,10.40
2019-04-29T06:33:54.538Z,10.40
2019-04-29T06:36:23.805Z,10.50
2019-04-29T06:38:52.912Z,10.60
2019-04-29T06:41:22.143Z,10.60
2019-04-29T06:43:54.194Z,10.60
2019-04-29T06:46:22.319Z,10.60
2019-04-29T06:48:51.567Z,10.60
2019-04-29T06:51:20.924Z,10.70
2019-04-29T06:53:50.205Z,10.70
2019-04-29T06:56:19.517Z,10.80
2019-04-29T06:58:49.114Z,10.80
2019-04-29T07:01:18.331Z,10.80
2019-04-29T07:03:47.623Z,10.90
2019-04-29T07:06:16.868Z,10.90
2019-04-29T07:08:46.093Z,10.90
2019-04-29T07:11:15.555Z,11.00
2019-04-29T07:13:46.567Z,11.00
2019-04-29T07:16:17.120Z,11.10
2019-04-29T07:18:51.236Z,11.10
2019-04-29T07:21:17.514Z,11.10
2019-04-29T07:23:46.671Z,11.10
2019-04-29T07:26:15.891Z,11.10
2019-04-29T07:28:48.788Z,11.10
2019-04-29T07:31:16.195Z,11.10
2019-04-29T07:33:45.536Z,11.10
2019-04-29T07:36:18.525Z,11.20
2019-04-29T07:38:46.578Z,11.20
2019-04-29T07:41:19.006Z,11.20
2019-04-29T07:43:53.697Z,11.20
2019-04-29T07:46:34.684Z,11.20
2019-04-29T07:49:05.595Z,11.30
2019-04-29T07:51:34.716Z,11.30
2019-04-29T07:54:04.607Z,11.30
2019-04-29T07:56:33.775Z,11.30
2019-04-29T07:59:04.562Z,11.30
2019-04-29T08:01:33.826Z,11.30
2019-04-29T08:04:02.987Z,11.40
2019-04-29T08:06:33.378Z,11.40
2019-04-29T08:09:07.767Z,11.40
2019-04-29T08:11:34.067Z,11.40
2019-04-29T08:14:04.106Z,11.40
2019-04-29T08:16:33.703Z,11.30
2019-04-29T08:19:04.992Z,11.40
2019-04-29T08:21:34.827Z,11.40
2019-04-29T08:24:04.071Z,11.40
2019-04-29T08:26:33.566Z,11.50
2019-04-29T08:29:04.286Z,11.50
2019-04-29T08:31:33.587Z,11.50
2019-04-29T08:34:02.934Z,11.40
2019-04-29T08:36:32.392Z,11.50
2019-04-29T08:39:08.401Z,11.50
2019-04-29T08:41:32.594Z,11.50
2019-04-29T08:44:23.731Z,11.50
2019-04-29T08:47:00.683Z,11.50
2019-04-29T08:49:30.015Z,11.50
2019-04-29T08:51:59.482Z,11.50
2019-04-29T08:54:28.623Z,11.50
2019-04-29T08:57:07.071Z,11.60
2019-04-29T08:59:36.311Z,11.60
2019-04-29T09:02:10.346Z,11.60
2019-04-29T09:04:36.608Z,11.60
2019-04-29T09:07:12.757Z,11.70
2019-04-29T09:09:36.930Z,11.60
2019-04-29T09:12:08.246Z,11.70
2019-04-29T09:14:37.660Z,11.70
2019-04-29T09:17:20.332Z,11.70
2019-04-29T09:19:40.329Z,11.70
2019-04-29T09:22:11.110Z,11.60
2019-04-29T09:24:43.705Z,11.60
2019-04-29T09:27:17.703Z,11.70
2019-04-29T09:29:47.001Z,11.70
2019-04-29T09:32:20.470Z,11.70
2019-04-29T09:34:49.603Z,11.70
2019-04-29T09:37:27.770Z,11.70
2019-04-29T09:39:57.392Z,11.70
2019-04-29T09:43:14.540Z,11.80
2019-04-29T09:45:37.602Z,11.80
2019-04-29T09:48:07.296Z,11.80
2019-04-29T09:50:39.182Z,11.80
2019-04-29T09:53:07.556Z,11.90
2019-04-29T09:55:40.035Z,11.90
2019-04-29T09:58:07.805Z,11.90
2019-04-29T10:00:54.406Z,11.90
2019-04-29T10:03:41.263Z,11.90
2019-04-29T10:06:21.144Z,12.00
2019-04-29T10:08:50.365Z,12.00
2019-04-29T10:11:19.607Z,12.00
2019-04-29T10:13:48.717Z,11.90
2019-04-29T10:16:27.551Z,11.90
2019-04-29T10:19:08.564Z,11.90
2019-04-29T10:21:41.020Z,12.00
2019-04-29T10:24:10.084Z,12.00
2019-04-29T10:26:39.269Z,11.90
2019-04-29T10:29:13.750Z,12.00
2019-04-29T10:31:47.113Z,12.00
2019-04-29T10:34:18.523Z,11.90
2019-04-29T10:36:52.051Z,12.00
2019-04-29T10:39:48.809Z,12.00
2019-04-29T10:42:30.863Z,12.00
2019-04-29T10:45:09.736Z,12.00
2019-04-29T10:47:48.436Z,12.00
2019-04-29T10:50:23.908Z,12.00
2019-04-29T10:52:54.232Z,11.90
2019-04-29T10:55:33.408Z,11.90
2019-04-29T10:58:02.709Z,11.90
2019-04-29T11:01:30.337Z,11.90
2019-04-29T11:04:02.692Z,11.90
2019-04-29T11:06:35.785Z,11.90
2019-04-29T11:09:34.478Z,11.90
2019-04-29T11:12:08.805Z,11.90
2019-04-29T11:14:39.016Z,11.90
2019-04-29T11:17:16.058Z,11.90
2019-04-29T11:19:41.617Z,11.90
2019-04-29T11:22:13.286Z,11.90
2019-04-29T11:25:01.558Z,11.90
2019-04-29T11:27:36.509Z,11.90
2019-04-29T11:30:10.811Z,12.00
2019-04-29T11:32:45.307Z,12.00
2019-04-29T11:35:42.496Z,12.10
2019-04-29T11:38:13.451Z,12.10
2019-04-29T11:40:44.184Z,12.00
2019-04-29T11:43:15.444Z,12.10
2019-04-29T11:45:45.933Z,12.00
2019-04-29T11:48:16.411Z,12.00
2019-04-29T11:51:13.803Z,12.00
2019-04-29T11:54:02.865Z,12.10
2019-04-29T11:56:35.534Z,12.10
2019-04-29T11:59:30.569Z,12.10
2019-04-29T12:02:45.323Z,12.10
2019-04-29T12:05:19.803Z,12.10
2019-04-29T12:07:49.208Z,12.00
2019-04-29T12:10:18.454Z,12.00
2019-04-29T12:12:49.049Z,12.00
2019-04-29T12:15:50.319Z,12.10
2019-04-29T12:18:39.851Z,12.10
2019-04-29T12:21:31.347Z,12.10
2019-04-29T12:24:01.952Z,12.10
2019-04-29T12:26:35.591Z,12.10
2019-04-29T12:29:04.102Z,12.10
2019-04-29T12:32:13.303Z,12.10
2019-04-29T12:35:10.713Z,12.10
2019-04-29T12:38:17.651Z,12.10
2019-04-29T12:41:20.566Z,12.10
2019-04-29T12:44:01.387Z,12.10
2019-04-29T12:46:46.082Z,12.10
2019-04-29T12:49:15.398Z,12.10
2019-04-29T12:51:49.525Z,12.10
2019-04-29T12:54:30.270Z,12.10
2019-04-29T12:57:05.702Z,12.10
2019-04-29T12:59:41.139Z,12.10
2019-04-29T13:02:28.511Z,12.20
2019-04-29T13:05:09.248Z,12.20
2019-04-29T13:08:05.336Z,12.20
2019-04-29T13:10:42.546Z,12.10
2019-04-29T13:13:21.943Z,12.10
2019-04-29T13:15:59.415Z,12.10
2019-04-29T13:18:38.617Z,12.20
2019-04-29T13:21:10.449Z,12.20
2019-04-29T13:23:53.519Z,12.10
2019-04-29T13:26:10.082Z,12.10
2019-04-29T13:28:58.335Z,12.10
2019-04-29T13:31:10.346Z,12.10
2019-04-29T13:33:40.057Z,12.10
2019-04-29T13:36:09.498Z,12.10
2019-04-29T13:38:39.108Z,12.20
2019-04-29T13:41:13.643Z,12.20
2019-04-29T13:43:39.404Z,12.20
2019-04-29T13:46:19.375Z,12.20
2019-04-29T13:49:13.593Z,12.20
2019-04-29T13:51:36.983Z,12.20
2019-04-29T13:54:06.601Z,12.20
2019-04-29T13:56:54.627Z,12.20
2019-04-29T13:59:10.613Z,12.20
2019-04-29T14:02:01.376Z,12.20
2019-04-29T14:04:33.812Z,12.20
2019-04-29T14:07:03.701Z,12.20
2019-04-29T14:09:35.046Z,12.20
2019-04-29T14:12:42.039Z,12.20
2019-04-29T14:14:35.498Z,12.20
2019-04-29T14:17:17.407Z,12.20
2019-04-29T14:19:42.980Z,12.20
2019-04-29T14:22:20.905Z,12.20
2019-04-29T14:24:37.863Z,12.30
2019-04-29T14:27:23.371Z,12.20
2019-04-29T14:30:03.018Z,12.20
2019-04-29T14:32:36.018Z,12.20
2019-04-29T14:35:18.496Z,12.30
2019-04-29T14:38:05.080Z,12.30
2019-04-29T14:40:49.988Z,12.20
2019-04-29T14:43:36.927Z,12.20
2019-04-29T14:46:31.696Z,12.20
2019-04-29T14:49:22.667Z,12.20
2019-04-29T14:51:53.876Z,12.20
2019-04-29T14:54:23.546Z,12.20
2019-04-29T14:56:52.872Z,12.20
2019-04-29T14:59:22.380Z,12.20
2019-04-29T15:01:59.753Z,12.20
2019-04-29T15:04:37.396Z,12.10
2019-04-29T15:07:06.934Z,12.10
2019-04-29T15:09:46.406Z,12.10
2019-04-29T15:12:26.446Z,12.10
2019-04-29T15:15:20.531Z,12.10
2019-04-29T15:17:59.943Z,12.20
2019-04-29T15:20:41.072Z,12.20
2019-04-29T15:23:10.390Z,12.20
2019-04-29T15:25:39.980Z,12.20
2019-04-29T15:28:09.193Z,12.20
2019-04-29T15:30:38.758Z,12.20
2019-04-29T15:33:08.054Z,12.20
2019-04-29T15:35:48.563Z,12.30
2019-04-29T15:38:19.472Z,12.30
2019-04-29T15:40:55.089Z,12.30
2019-04-29T15:43:46.401Z,12.30
2019-04-29T15:46:00.368Z,12.30
2019-04-29T15:48:34.388Z,12.30
2019-04-29T15:51:04.325Z,12.30
2019-04-29T15:53:34.068Z,12.30
2019-04-29T15:56:08.671Z,12.30
2019-04-29T15:58:34.338Z,12.30
2019-04-29T16:01:14.852Z,12.30
2019-04-29T16:03:37.636Z,12.30
2019-04-29T16:06:21.350Z,12.30
2019-04-29T16:09:09.683Z,12.40
2019-04-29T16:11:56.799Z,12.40
2019-04-29T16:14:27.350Z,12.40
2019-04-29T16:16:57.000Z,12.40
2019-04-29T16:19:35.222Z,12.40
2019-04-29T16:22:04.399Z,12.40
2019-04-29T16:27:08.635Z,12.80
2019-04-29T16:29:35.895Z,13.00
2019-04-29T16:32:08.130Z,13.10
2019-04-29T16:34:43.888Z,13.10
2019-04-29T16:37:08.501Z,13.10
2019-04-29T16:39:37.852Z,13.10
2019-04-29T16:42:25.001Z,13.10
2019-04-29T16:44:54.368Z,13.00
2019-04-29T16:47:23.786Z,13.00
2019-04-29T16:49:57.452Z,13.00
2019-04-29T16:52:26.071Z,13.00
2019-04-29T16:54:59.119Z,13.00
2019-04-29T16:57:26.512Z,13.00
2019-04-29T16:59:56.197Z,13.00
2019-04-29T17:02:25.678Z,13.10
2019-04-29T17:04:54.817Z,13.20
2019-04-29T17:07:29.293Z,13.30
2019-04-29T17:10:12.694Z,13.40
2019-04-29T17:12:46.879Z,13.50
2019-04-29T17:15:24.830Z,13.60
2019-04-29T17:18:13.531Z,13.70
2019-04-29T17:20:43.640Z,13.80
2019-04-29T17:23:13.047Z,13.90
2019-04-29T17:25:44.115Z,14.00
2019-04-29T17:28:26.010Z,14.10
2019-04-29T17:31:12.283Z,14.10
2019-04-29T17:34:07.357Z,14.20
2019-04-29T17:35:14.119Z,12.60
2019-04-29T17:36:36.838Z,14.20
2019-04-29T17:39:08.225Z,14.20
2019-04-29T17:41:44.128Z,14.20
2019-04-29T17:44:33.364Z,14.20
2019-04-29T17:47:21.718Z,14.20
2019-04-29T17:50:08.781Z,14.30
2019-04-29T17:52:38.263Z,14.20
2019-04-29T17:55:15.204Z,14.30
2019-04-29T17:57:59.091Z,14.30
2019-04-29T18:00:44.794Z,14.30
2019-04-29T18:03:28.676Z,14.30
2019-04-29T18:06:24.011Z,14.30
2019-04-29T18:09:19.995Z,14.30
2019-04-29T18:11:53.135Z,14.30
2019-04-29T18:14:22.507Z,14.40
2019-04-29T18:17:01.002Z,14.40
2019-04-29T18:19:40.576Z,14.40
2019-04-29T18:22:28.049Z,14.40
2019-04-29T18:25:13.161Z,14.30
2019-04-29T18:27:45.043Z,14.10
2019-04-29T18:30:16.299Z,14.00
2019-04-29T18:32:48.884Z,13.90
2019-04-29T18:35:18.140Z,13.80
2019-04-29T18:37:55.714Z,13.70
2019-04-29T18:40:25.880Z,13.70
2019-04-29T18:42:55.516Z,13.60
2019-04-29T18:45:30.085Z,13.50
2019-04-29T18:48:03.149Z,13.50
2019-04-29T18:50:34.277Z,13.50
2019-04-29T18:53:06.799Z,13.40
2019-04-29T18:55:35.370Z,13.50
2019-04-29T18:58:05.805Z,13.50
2019-04-29T19:00:35.356Z,13.50
2019-04-29T19:03:06.470Z,13.50
2019-04-29T19:05:40.683Z,13.50
2019-04-29T19:08:13.942Z,13.50
2019-04-29T19:10:40.679Z,13.50
2019-04-29T19:13:14.900Z,13.50
2019-04-29T19:15:46.070Z,13.50
2019-04-29T19:18:16.404Z,13.50
2019-04-29T19:20:46.101Z,13.50
2019-04-29T19:23:16.137Z,13.50
2019-04-29T19:25:49.845Z,13.50
2019-04-29T19:28:29.483Z,13.50
2019-04-29T19:30:51.007Z,13.50
2019-04-29T19:33:25.226Z,13.50
2019-04-29T19:35:55.399Z,13.50
2019-04-29T19:38:25.374Z,13.50
2019-04-29T19:40:54.880Z,13.50
2019-04-29T19:43:25.850Z,13.50
2019-04-29T19:46:22.692Z,13.50
2019-04-29T19:48:51.550Z,13.60
2019-04-29T19:51:23.125Z,13.70
2019-04-29T19:53:55.222Z,13.70
2019-04-29T19:56:40.799Z,13.80
2019-04-29T19:59:13.581Z,13.90
2019-04-29T20:01:51.359Z,14.00
2019-04-29T20:04:43.821Z,14.10
2019-04-29T20:07:20.575Z,14.20
2019-04-29T20:10:00.023Z,14.20
2019-04-29T20:12:21.476Z,14.20
2019-04-29T20:14:58.727Z,14.30
2019-04-29T20:17:49.214Z,14.30
2019-04-29T20:20:25.350Z,14.30
2019-04-29T20:22:55.664Z,14.30
2019-04-29T20:25:30.300Z,14.10
2019-04-29T20:28:05.623Z,13.80
2019-04-29T20:30:26.704Z,13.60
2019-04-29T20:33:11.019Z,13.40
2019-04-29T20:35:35.753Z,13.20
2019-04-29T20:38:05.665Z,13.10
2019-04-29T20:40:39.945Z,13.00
2019-04-29T20:43:08.249Z,12.90
2019-04-29T20:45:36.884Z,12.80
2019-04-29T20:48:06.511Z,12.70
2019-04-29T20:50:40.670Z,12.60
2019-04-29T20:53:46.354Z,12.60
2019-04-29T20:56:24.122Z,12.50
2019-04-29T20:58:47.040Z,12.50
2019-04-29T21:01:25.469Z,12.40
2019-04-29T21:03:56.558Z,12.40
2019-04-29T21:06:25.527Z,12.30
2019-04-29T21:08:55.177Z,12.30
2019-04-29T21:11:39.930Z,12.20
2019-04-29T21:14:20.586Z,12.20
2019-04-29T21:16:50.187Z,12.20
2019-04-29T21:19:22.615Z,12.20
2019-04-29T21:21:57.327Z,12.20
2019-04-29T21:24:26.703Z,12.20
2019-04-29T21:26:57.450Z,12.10
2019-04-29T21:29:26.604Z,12.10
2019-04-29T21:32:01.499Z,12.10
2019-04-29T21:34:36.994Z,12.10
2019-04-29T21:37:21.066Z,12.00
2019-04-29T21:39:55.241Z,12.00
2019-04-29T21:42:41.593Z,12.00
2019-04-29T21:45:15.534Z,12.00
2019-04-29T21:47:51.827Z,12.00
2019-04-29T21:50:17.015Z,12.00
2019-04-29T21:52:46.894Z,12.00
2019-04-29T21:55:16.332Z,12.00
2019-04-29T21:57:47.459Z,11.90
2019-04-29T22:00:23.980Z,11.90
2019-04-29T22:02:49.219Z,11.90
2019-04-29T22:05:18.818Z,11.90
2019-04-29T22:07:48.326Z,11.90
2019-04-29T22:10:38.170Z,11.90
2019-04-29T22:13:07.938Z,11.90
2019-04-29T22:15:41.003Z,11.90
2019-04-29T22:18:13.994Z,11.90
2019-04-29T22:20:42.149Z,11.90
2019-04-29T22:23:13.070Z,11.90
2019-04-29T22:25:45.215Z,11.90
2019-04-29T22:28:16.108Z,11.90
2019-04-29T22:30:42.825Z,11.90
2019-04-29T22:33:15.219Z,11.90
2019-04-29T22:35:45.233Z,11.80
2019-04-29T22:38:16.690Z,11.80
2019-04-29T22:40:45.656Z,11.80
2019-04-29T22:43:20.227Z,11.80
2019-04-29T22:45:49.362Z,11.80
2019-04-29T22:48:19.871Z,11.80
2019-04-29T22:50:51.202Z,11.80
2019-04-29T22:53:20.426Z,11.80
2019-04-29T22:55:49.456Z,11.80
2019-04-29T22:58:18.603Z,11.80
2019-04-29T23:00:47.861Z,11.80
2019-04-29T23:03:16.972Z,11.80
2019-04-29T23:05:46.277Z,11.80
2019-04-29T23:08:15.515Z,11.70
2019-04-29T23:10:45.588Z,11.70
2019-04-29T23:13:14.902Z,11.70
2019-04-29T23:15:45.551Z,11.70
2019-04-29T23:18:29.049Z,11.70
2019-04-29T23:21:19.969Z,11.70
2019-04-29T23:23:52.303Z,11.70
2019-04-29T23:26:21.397Z,11.70
2019-04-29T23:28:50.425Z,11.70
2019-04-29T23:31:22.686Z,11.70
2019-04-29T23:33:53.125Z,11.70
2019-04-29T23:36:22.865Z,11.70
2019-04-29T23:38:51.989Z,11.70
2019-04-29T23:41:21.048Z,11.70
2019-04-29T23:43:50.143Z,11.70
2019-04-29T23:46:19.240Z,11.70
2019-04-29T23:48:48.311Z,11.70
2019-04-29T23:51:27.393Z,11.70
2019-04-29T23:53:56.715Z,11.70
2019-04-29T23:56:29.155Z,11.70
2019-04-29T23:59:09.854Z,11.60
